Flight Track Log - Related Links

Times and Time Zones

All times are in EDT time to prevent confusion due to time zone crossing. See the ASQ5345 flight status page for this flight to view local times or setup timezone preferences in your user account.

Time Position Orientation Groundspeed Altitude Reporting Facility
EDT Latitude Longitude Course Direction KTS MPH feet Rate Location/Type
Fri 10:11:09 PM 33.6500 -84.3667 59° Northeast 158 182 3,100  Level Atlanta TRACON
Fri 10:12:15 PM 33.6833 -84.3000 59° Northeast 242 278 5,100 2,190 Climbing Atlanta TRACON
Fri 10:13:15 PM 33.7500 -84.2833 12° North 304 350 7,700 2,377 Climbing Atlanta TRACON
Fri 10:14:49 PM 33.8125 -84.3939 304° West 314 361 11,200 1,792 Climbing Atlanta Center
Fri 10:15:49 PM 33.8100 -84.5064 268° West 323 372 12,300 1,050 Climbing Atlanta Center
Fri 10:16:49 PM 33.7969 -84.6364 263° West 351 404 13,300 1,200 Climbing Atlanta Center
Fri 10:17:49 PM 33.7714 -84.7511 255° West 364 419 14,700 1,500 Climbing Atlanta Center
Fri 10:18:49 PM 33.7392 -84.8706 252° West 364 419 16,300 1,500 Climbing Atlanta Center
Fri 10:19:49 PM 33.7092 -84.9903 253° West 375 432 17,700 1,300 Climbing Atlanta Center
Fri 10:20:49 PM 33.6811 -85.1072 254° West 370 426 18,900 1,200 Climbing Atlanta Center
Fri 10:21:49 PM 33.6528 -85.2242 254° West 375 432 20,100 1,050 Climbing Atlanta Center
Fri 10:22:49 PM 33.6517 -85.3514 269° West 380 437 21,000 800 Climbing Atlanta Center
Fri 10:23:49 PM 33.6525 -85.4664 271° West 380 437 21,700 750 Climbing Atlanta Center
Fri 10:24:49 PM 33.6572 -85.5961 273° West 385 443 22,500 700 Climbing Atlanta Center
Fri 10:25:49 PM 33.6575 -85.7308 270° West 390 449 23,100 600 Climbing Atlanta Center
Fri 10:26:49 PM 33.6578 -85.8531 270° West 390 449 23,700 600 Climbing Atlanta Center
Fri 10:27:49 PM 33.6600 -85.9881 271° West 390 449 24,300 600 Climbing Atlanta Center
Fri 10:28:49 PM 33.6639 -86.1228 272° West 401 461 24,900 550 Climbing Atlanta Center
Fri 10:29:49 PM 33.6636 -86.2603 270° West 406 467 25,400 550 Climbing Atlanta Center
Fri 10:30:49 PM 33.6653 -86.4000 271° West 411 473 26,000 550 Climbing Atlanta Center
Fri 10:31:49 PM 33.6644 -86.5397 270° West 417 480 26,500 550 Climbing Atlanta Center
Fri 10:32:49 PM 33.6678 -86.6769 272° West 417 480 27,100 650 Climbing Atlanta Center
Fri 10:33:49 PM 33.6692 -86.8144 271° West 422 486 27,800 700 Climbing Atlanta Center
Fri 10:34:49 PM 33.6639 -86.9439 267° West 412 474 28,500 700 Climbing Atlanta Center
Fri 10:35:49 PM 33.6483 -87.0758 262° West 406 467 29,200 596 Climbing Atlanta Center
Fri 10:37:20 PM 33.6272 -87.2786 263° West 405 466 30,000 318 Climbing Memphis Center
Fri 10:38:20 PM 33.6119 -87.4214 263° West 405 466 30,000  Level Memphis Center
Fri 10:39:20 PM 33.5964 -87.5592 262° West 411 473 30,000  Level Memphis Center
Fri 10:40:20 PM 33.5786 -87.6942 261° West 411 473 30,000  Level Memphis Center
Fri 10:41:20 PM 33.5644 -87.8244 263° West 411 473 30,000  Level Memphis Center
Fri 10:42:20 PM 33.5503 -87.9494 262° West 401 461 30,000  Level Memphis Center
Fri 10:43:20 PM 33.5358 -88.0744 262° West 390 449 30,000  Level Memphis Center
Fri 10:44:20 PM 33.5444 -88.1989 275° West 380 437 30,000  Level Memphis Center
Fri 10:45:20 PM 33.5842 -88.3250 291° West 387 445 30,000  Level Memphis Center
Fri 10:46:20 PM 33.6092 -88.4542 283° West 392 451 30,000  Level Memphis Center
Fri 10:47:20 PM 33.5983 -88.5764 264° West 383 441 30,000 100 Level Memphis Center
Fri 10:48:20 PM 33.5878 -88.7089 265° West 389 448 30,200 500 Climbing Memphis Center
Fri 10:49:20 PM 33.5831 -88.8411 268° West 389 448 31,000 700 Climbing Memphis Center
Fri 10:50:20 PM 33.5722 -88.9686 264° West 389 448 31,600 500 Climbing Memphis Center
Fri 10:51:20 PM 33.5631 -89.0983 265° West 389 448 32,000 200 Climbing Memphis Center
Fri 10:52:20 PM 33.5539 -89.2256 265° West 389 448 32,000  Level Memphis Center
Fri 10:53:20 PM 33.5406 -89.3628 263° West 395 455 32,000  Level Memphis Center
Fri 10:54:20 PM 33.5289 -89.4950 264° West 401 461 32,000  Level Memphis Center
Fri 10:55:20 PM 33.5194 -89.6297 265° West 411 473 32,000  Level Memphis Center
Fri 10:56:20 PM 33.5075 -89.7642 264° West 411 473 32,000  Level Memphis Center
Fri 10:57:20 PM 33.4978 -89.8889 265° West 411 473 32,000  Level Memphis Center
Fri 10:58:20 PM 33.4878 -90.0233 265° West 411 473 32,000  Level Memphis Center
Fri 10:59:20 PM 33.4733 -90.1606 263° West 416 479 32,000  Level Memphis Center
Fri 11:00:20 PM 33.4589 -90.3000 263° West 416 479 32,000  Level Memphis Center
Fri 11:01:20 PM 33.4358 -90.4319 258° West 416 479 32,000  Level Memphis Center
Fri 11:02:20 PM 33.4108 -90.5614 257° West 410 472 32,000  Level Memphis Center
Fri 11:03:20 PM 33.3856 -90.6906 257° West 410 472 32,000  Level Memphis Center
Fri 11:04:20 PM 33.3642 -90.8200 259° West 410 472 32,000  Level Memphis Center
Fri 11:05:20 PM 33.3406 -90.9492 258° West 410 472 32,000  Level Memphis Center
Fri 11:06:20 PM 33.3150 -91.0781 257° West 410 472 32,000  Level Memphis Center
Fri 11:07:20 PM 33.2911 -91.2047 257° West 405 466 32,000  Level Memphis Center
Fri 11:08:20 PM 33.2672 -91.3336 258° West 405 466 32,000  Level Memphis Center
Fri 11:09:51 PM 33.2361 -91.5253 259° West 389 448 32,000  Level Fort Worth Center
Fri 11:10:51 PM 33.2147 -91.6508 259° West 389 448 32,000  Level Fort Worth Center
Fri 11:11:51 PM 33.1872 -91.7817 256° West 396 456 32,000 -400 Level Fort Worth Center
Fri 11:12:51 PM 33.1636 -91.9097 258° West 401 461 31,200 -900 Descending Fort Worth Center
Fri 11:13:51 PM 33.1361 -92.0453 256° West 401 461 30,200 -1,000 Descending Fort Worth Center
Fri 11:14:51 PM 33.1103 -92.1708 256° West 406 467 29,200 -1,000 Descending Fort Worth Center
Fri 11:15:51 PM 33.0839 -92.2939 256° West 396 456 28,200 -1,000 Descending Fort Worth Center
Fri 11:16:51 PM 33.0636 -92.4117 258° West 385 443 27,200 -1,000 Descending Fort Worth Center
Fri 11:17:51 PM 33.0389 -92.5244 255° West 367 422 26,200 -1,450 Descending Fort Worth Center
Fri 11:18:51 PM 33.0161 -92.6397 257° West 360 414 24,300 -2,000 Descending Fort Worth Center
Fri 11:19:33 PM 32.9928 -92.7350 254° West 365 420 22,800 -2,000 Descending Fort Worth Center
Fri 11:19:51 PM 32.9875 -92.7675 259° West 360 414 22,300 -2,100 Descending Fort Worth Center
Fri 11:20:33 PM 32.9444 -92.8439 236° Southwest 381 438 20,700 -2,100 Descending Fort Worth Center
Fri 11:20:51 PM 32.9331 -92.8717 244° Southwest 366 421 20,200 -2,459 Descending Fort Worth Center
Fri 11:21:34 PM 32.8894 -92.9383 232° Southwest 341 392 18,200 -2,400 Descending Fort Worth Center
Fri 11:21:51 PM 32.8756 -92.9611 234° Southwest 360 414 17,800 -2,459 Descending Fort Worth Center
Fri 11:22:35 PM 32.8322 -93.0300 233° Southwest 321 369 15,700 -2,600 Descending Fort Worth Center
Fri 11:22:51 PM 32.8203 -93.0481 232° Southwest 348 400 15,200 -2,500 Descending Fort Worth Center
Fri 11:23:35 PM 32.7747 -93.1194 233° Southwest 336 387 13,200 -2,500 Descending Fort Worth Center
Fri 11:23:51 PM 32.7650 -93.1372 237° Southwest 343 395 12,700 -2,164 Descending Fort Worth Center
Fri 11:24:36 PM 32.7194 -93.2108 234° Southwest 338 389 11,000 -2,000 Descending Fort Worth Center
Fri 11:24:51 PM 32.7072 -93.2214 216° Southwest 343 395 10,700 -1,200 Descending Fort Worth Center
Fri 11:25:36 PM 32.6586 -93.2681 219° Southwest 274 315 9,800 -1,200 Descending Fort Worth Center
Fri 11:25:51 PM 32.6486 -93.2758 213° Southwest 316 364 9,500 -1,967 Descending Fort Worth Center
Fri 11:26:37 PM 32.5936 -93.3203 214° Southwest 264 304 7,800 -2,075 Descending Fort Worth Center
Fri 11:27:38 PM 32.5328 -93.3725 216° Southwest 270 311 5,800 -2,031 Descending Fort Worth Center
Fri 11:28:44 PM 32.4636 -93.4322 216° Southwest 268 308 3,500 -1,323 Descending Fort Worth Center
Fri 11:29:45 PM 32.4047 -93.4864 218° Southwest 261 300 3,000 -246 Descending Fort Worth Center
Fri 11:30:46 PM 32.3861 -93.5611 254° West 251 289 3,000 -149 Level Fort Worth Center
Fri 11:31:46 PM 32.3739 -93.6403 260° West 228 262 2,700 -545 Descending Fort Worth Center
Fri 11:32:47 PM 32.3675 -93.7069 264° West 193 222 1,900 -470 Descending Fort Worth Center
Fri 11:33:41 PM 32.3733 -93.7583 278° West 168 193 1,800 -417 Descending Fort Worth Center
Fri 11:34:42 PM 32.4014 -93.7917 315° West 124 143 1,100 -689 Descending Fort Worth Center
Fri 11:36:00 PM 32.4333 -93.8167 267° West  Level FlightAware Approximate
Fri 11:43:00 PM 32.4466 -93.8256 267° West  Level Estimated

Login

Don't have an account? Register now (free) for customized features, flight alerts, and more!